Time;durP1;ratioP1;P1;durP2;ratioP2;P2;SDS_P1;SDS_P2;PMS_P1;PMS_P2;Temp;Humidity;BMP_temperature;BMP_pressure;BME280_temperature;BME280_humidity;BME280_pressure;Samples;Min_cycle;Max_cycle;Signal;HPM_P1;HPM_P2
2024/02/26 00:03:13;;;;;;;26.80;17.50;;;;;;;3.10;93.45;98532.35;451262;1254;139183;-73
2024/02/26 00:13:22;;;;;;;27.20;18.50;;;;;;;3.05;94.50;98526.73;451295;1252;139830;-74
2024/02/26 00:23:27;;;;;;;29.00;19.20;;;;;;;3.03;95.27;98521.27;451176;1254;140045;-73
2024/02/26 00:33:33;;;;;;;30.00;20.10;;;;;;;2.97;95.83;98517.62;450935;1254;139869;-73
2024/02/26 00:43:42;;;;;;;25.70;18.70;;;;;;;2.85;96.04;98513.85;451254;1254;139459;-65
2024/02/26 00:53:48;;;;;;;22.80;16.90;;;;;;;2.73;96.85;98509.98;451377;1254;139489;-64
2024/02/26 01:03:54;;;;;;;27.00;18.70;;;;;;;2.67;97.81;98510.07;451329;1253;139316;-73
2024/02/26 01:14:00;;;;;;;23.80;16.40;;;;;;;2.63;98.48;98507.64;451424;1254;140420;-73
2024/02/26 01:24:10;;;;;;;21.90;17.80;;;;;;;2.60;99.31;98509.02;451458;1254;139617;-63
2024/02/26 01:34:18;;;;;;;27.70;19.00;;;;;;;2.52;99.20;98507.36;451265;1254;139767;-65
2024/02/26 01:44:24;;;;;;;21.90;16.20;;;;;;;2.48;99.92;98503.23;451326;1253;140161;-58
2024/02/26 01:54:34;;;;;;;26.00;17.50;;;;;;;2.37;99.93;98507.20;451363;1253;140077;-56
2024/02/26 02:04:41;;;;;;;24.50;18.00;;;;;;;2.26;99.96;98511.52;451340;1254;140229;-57
2024/02/26 02:14:47;;;;;;;26.80;19.80;;;;;;;2.18;100.00;98518.11;451286;1253;140936;-57
2024/02/26 02:24:56;;;;;;;26.30;18.80;;;;;;;2.24;100.00;98518.88;451433;1253;139814;-58
2024/02/26 02:35:02;;;;;;;24.10;17.80;;;;;;;2.27;100.00;98519.77;451342;1253;139713;-58
2024/02/26 02:45:11;;;;;;;22.50;16.70;;;;;;;2.29;100.00;98519.48;451261;1254;140684;-64
2024/02/26 02:55:17;;;;;;;23.20;16.10;;;;;;;2.27;100.00;98519.22;451283;1255;140141;-58
2024/02/26 03:05:25;;;;;;;25.00;16.50;;;;;;;2.26;100.00;98524.81;451394;1254;140530;-57
2024/02/26 03:15:32;;;;;;;24.40;17.90;;;;;;;2.22;100.00;98517.02;451370;1254;139461;-57
2024/02/26 03:25:36;;;;;;;;;;;;;;;2.14;100.00;98514.30;451468;1253;139418;-57
2024/02/26 03:35:42;;;;;;;22.30;15.50;;;;;;;2.07;100.00;98511.16;451575;1254;125383;-60
2024/02/26 03:45:48;;;;;;;21.30;14.50;;;;;;;2.01;100.00;98516.11;451315;1254;140001;-60
2024/02/26 03:55:55;;;;;;;22.30;15.50;;;;;;;2.00;100.00;98517.38;451238;1254;141040;-61
2024/02/26 04:06:01;;;;;;;24.00;17.30;;;;;;;1.98;100.00;98512.45;451418;1254;139250;-60
2024/02/26 04:16:07;;;;;;;20.00;14.20;;;;;;;1.96;100.00;98516.85;451342;1254;139969;-64
2024/02/26 04:26:13;;;;;;;23.50;15.90;;;;;;;1.95;100.00;98518.63;451370;1252;140027;-64
2024/02/26 04:36:19;;;;;;;22.90;15.60;;;;;;;1.91;100.00;98517.08;451478;1253;140222;-58
2024/02/26 04:46:25;;;;;;;19.80;14.10;;;;;;;1.84;100.00;98522.95;451359;1255;139606;-58
2024/02/26 04:56:33;;;;;;;19.10;13.80;;;;;;;1.77;100.00;98512.70;451362;1254;140365;-61
2024/02/26 05:06:41;;;;;;;23.10;14.50;;;;;;;1.73;100.00;98513.08;451439;1254;139379;-60
2024/02/26 05:16:47;;;;;;;23.30;14.70;;;;;;;1.72;100.00;98522.61;451367;1253;139631;-61
2024/02/26 05:26:54;;;;;;;20.20;14.40;;;;;;;1.74;100.00;98530.44;451360;1252;139231;-61
2024/02/26 05:37:00;;;;;;;23.10;14.00;;;;;;;1.77;100.00;98537.56;451313;1254;140015;-61
2024/02/26 05:47:06;;;;;;;20.40;14.80;;;;;;;1.85;100.00;98550.31;451393;1253;140121;-72
2024/02/26 05:57:12;;;;;;;22.90;17.20;;;;;;;2.05;100.00;98560.50;451540;1253;140405;-72
2024/02/26 06:07:18;;;;;;;20.50;14.80;;;;;;;2.35;100.00;98561.51;451378;1254;139838;-73
2024/02/26 06:17:25;;;;;;;19.90;15.40;;;;;;;2.75;100.00;98574.34;451530;1254;139263;-73
2024/02/26 06:27:30;;;;;;;22.20;15.70;;;;;;;3.40;100.00;98577.88;451357;1254;139663;-72
2024/02/26 06:37:37;;;;;;;22.90;17.00;;;;;;;5.34;100.00;98576.83;451395;1254;140172;-70
2024/02/26 06:47:43;;;;;;;18.70;14.10;;;;;;;8.81;100.00;98574.66;447305;1254;5085567;-72
2024/02/26 06:57:49;;;;;;;18.10;13.60;;;;;;;11.67;99.21;98576.96;451020;1254;140341;-72
2024/02/26 07:07:55;;;;;;;19.60;14.80;;;;;;;14.63;94.47;98575.31;450987;1255;140333;-73
2024/02/26 07:18:03;;;;;;;14.60;13.00;;;;;;;17.59;84.92;98583.57;451292;1253;138921;-65
2024/02/26 07:28:09;;;;;;;13.30;11.90;;;;;;;20.10;77.65;98577.57;451444;1254;139274;-67
2024/02/26 07:38:15;;;;;;;15.00;13.40;;;;;;;22.46;71.06;98571.49;451348;1254;139974;-71
2024/02/26 07:48:36;;;;;;;13.30;12.00;;;;;;;24.77;65.42;98567.41;451421;1253;138909;-66
2024/02/26 07:58:43;;;;;;;12.30;11.00;;;;;;;26.84;59.90;98573.17;451184;1253;139312;-65
2024/02/26 08:08:49;;;;;;;11.30;9.80;;;;;;;28.97;56.10;98567.16;451157;1254;139364;-73
2024/02/26 08:18:56;;;;;;;10.40;9.30;;;;;;;30.91;51.70;98565.12;451417;1253;138525;-65
2024/02/26 08:29:02;;;;;;;10.90;9.90;;;;;;;32.44;47.63;98569.64;451241;1254;139667;-68
2024/02/26 08:39:08;;;;;;;9.70;8.80;;;;;;;33.62;44.74;98571.22;451339;1255;139330;-67
2024/02/26 08:49:16;;;;;;;7.60;7.10;;;;;;;34.49;41.00;98570.66;451094;1255;138959;-62
2024/02/26 08:59:23;;;;;;;9.80;8.10;;;;;;;34.77;37.11;98575.44;451346;1253;138827;-62
2024/02/26 09:09:29;;;;;;;8.90;8.10;;;;;;;35.08;34.94;98581.65;451223;1253;138366;-65
2024/02/26 09:19:34;;;;;;;9.30;8.50;;;;;;;34.96;33.75;98576.23;451198;1255;138861;-63
2024/02/26 09:29:41;;;;;;;9.00;8.20;;;;;;;33.42;33.35;98568.66;451372;1256;138587;-60
2024/02/26 09:39:47;;;;;;;11.40;7.90;;;;;;;29.60;33.34;98564.14;451431;1252;138657;-62
2024/02/26 09:49:56;;;;;;;12.40;8.90;;;;;;;24.41;34.93;98568.14;451716;1253;139109;-62
2024/02/26 10:00:09;;;;;;;12.30;9.10;;;;;;;20.61;37.72;98578.39;451876;1252;138545;-65
2024/02/26 10:10:16;;;;;;;9.50;8.10;;;;;;;18.15;40.40;98584.04;451691;1253;138590;-62
2024/02/26 10:20:23;;;;;;;7.20;5.70;;;;;;;16.62;42.26;98587.37;451727;1252;138459;-64
2024/02/26 10:30:30;;;;;;;9.10;6.50;;;;;;;15.59;43.81;98593.42;451856;1252;138513;-60
2024/02/26 10:40:36;;;;;;;8.10;6.50;;;;;;;14.79;45.08;98594.55;451174;1254;138882;-62
2024/02/26 10:50:42;;;;;;;7.10;5.10;;;;;;;14.11;46.06;98595.90;451466;1253;139238;-64
2024/02/26 11:00:50;;;;;;;7.50;6.10;;;;;;;13.58;47.16;98592.87;451598;1252;139245;-76
2024/02/26 11:10:57;;;;;;;9.00;6.30;;;;;;;13.17;48.45;98588.98;451725;1253;138547;-58
2024/02/26 11:21:08;;;;;;;7.50;6.60;;;;;;;12.87;50.04;98581.54;451586;1252;138994;-57
2024/02/26 11:31:15;;;;;;;8.90;7.40;;;;;;;12.79;51.43;98580.28;451475;1252;139000;-61
2024/02/26 11:41:21;;;;;;;9.70;8.30;;;;;;;12.66;52.60;98576.80;451760;1252;138586;-62
2024/02/26 11:51:33;;;;;;;7.70;6.70;;;;;;;12.58;53.34;98571.05;451478;1253;138576;-71
2024/02/26 12:01:40;;;;;;;11.20;7.10;;;;;;;12.60;54.21;98564.19;451700;1252;139013;-62
2024/02/26 12:11:48;;;;;;;6.30;5.60;;;;;;;12.69;54.96;98565.66;451726;1254;138745;-63
2024/02/26 12:21:55;;;;;;;7.80;6.20;;;;;;;12.64;55.07;98571.79;451716;1256;139172;-61
2024/02/26 12:32:02;;;;;;;5.60;4.50;;;;;;;12.60;55.71;98567.18;451686;1252;138595;-66
2024/02/26 12:42:11;;;;;;;4.00;3.10;;;;;;;12.67;55.67;98575.55;451849;1253;137792;-64
2024/02/26 12:52:18;;;;;;;5.30;4.80;;;;;;;12.69;54.35;98578.13;451703;1252;139702;-76
2024/02/26 13:02:25;;;;;;;5.70;5.10;;;;;;;12.68;54.12;98573.89;451618;1253;138579;-66
2024/02/26 13:12:33;;;;;;;4.10;3.50;;;;;;;12.70;54.48;98569.27;451784;1254;139497;-70
2024/02/26 13:22:39;;;;;;;4.80;3.20;;;;;;;12.76;54.08;98567.20;451580;1255;139504;-64
2024/02/26 13:32:46;;;;;;;3.30;2.80;;;;;;;12.78;53.52;98567.92;451555;1254;140066;-68
2024/02/26 13:42:53;;;;;;;5.00;4.00;;;;;;;12.82;53.62;98564.51;451674;1255;137409;-68
2024/02/26 13:52:59;;;;;;;7.40;5.30;;;;;;;12.92;54.31;98566.96;451746;1254;138807;-64
2024/02/26 14:03:05;;;;;;;7.40;6.60;;;;;;;12.82;55.61;98570.50;451551;1256;138833;-62
2024/02/26 14:13:11;;;;;;;10.20;6.70;;;;;;;12.74;57.11;98573.64;451550;1255;138469;-66
2024/02/26 14:23:17;;;;;;;7.10;6.30;;;;;;;12.86;58.31;98577.15;451744;1253;138964;-60
2024/02/26 14:33:25;;;;;;;8.60;6.80;;;;;;;12.87;59.32;98576.95;451625;1253;139205;-70
2024/02/26 14:43:34;;;;;;;8.40;7.60;;;;;;;12.69;60.76;98585.84;451500;1253;139459;-64
2024/02/26 14:53:43;;;;;;;8.80;8.00;;;;;;;12.57;62.07;98579.20;451717;1254;139617;-63
2024/02/26 15:03:49;;;;;;;7.20;6.40;;;;;;;12.49;63.07;98573.26;451686;1252;138461;-63
2024/02/26 15:13:55;;;;;;;8.20;7.20;;;;;;;12.40;63.63;98564.92;451651;1254;139320;-66
2024/02/26 15:24:02;;;;;;;11.40;7.90;;;;;;;12.26;64.09;98571.20;451625;1254;139526;-58
2024/02/26 15:34:13;;;;;;;10.90;7.80;;;;;;;12.17;64.63;98579.36;451554;1253;138818;-66
2024/02/26 15:44:19;;;;;;;12.20;7.50;;;;;;;12.09;64.90;98579.19;451495;1253;139096;-57
2024/02/26 15:54:25;;;;;;;8.50;6.40;;;;;;;11.87;65.13;98585.87;451633;1254;138586;-57
2024/02/26 16:04:31;;;;;;;8.70;7.10;;;;;;;11.66;65.81;98591.89;451571;1254;138832;-57
2024/02/26 16:14:50;;;;;;;13.70;8.50;;;;;;;11.56;66.70;98593.57;451580;1254;139508;-57
2024/02/26 16:24:56;;;;;;;11.70;10.50;;;;;;;11.47;67.57;98605.51;451782;1252;139942;-58
2024/02/26 16:35:03;;;;;;;11.40;9.30;;;;;;;11.41;68.31;98611.51;451461;1253;139942;-58
2024/02/26 16:45:12;;;;;;;9.80;8.60;;;;;;;11.28;68.95;98621.31;451422;1254;140182;-56
2024/02/26 16:55:19;;;;;;;10.20;8.00;;;;;;;11.11;69.81;98614.40;451529;1254;138999;-66
2024/02/26 17:05:25;;;;;;;16.30;8.80;;;;;;;10.93;70.75;98617.52;451566;1252;139722;-69
2024/02/26 17:15:31;;;;;;;15.70;8.40;;;;;;;10.76;72.09;98627.55;451596;1252;140266;-62
2024/02/26 17:25:37;;;;;;;13.50;8.00;;;;;;;10.69;73.83;98634.45;451662;1252;139992;-61
2024/02/26 17:35:44;;;;;;;14.90;8.90;;;;;;;10.61;74.59;98642.93;451745;1252;139952;-64
2024/02/26 17:45:51;;;;;;;14.80;8.60;;;;;;;10.39;75.51;98649.89;451608;1252;139471;-62
2024/02/26 17:56:00;;;;;;;15.60;10.00;;;;;;;10.22;76.77;98645.77;451699;1252;140238;-69
2024/02/26 18:06:08;;;;;;;15.10;10.70;;;;;;;10.12;78.07;98652.29;451757;1252;139705;-58
2024/02/26 18:16:14;;;;;;;14.50;10.20;;;;;;;10.18;79.25;98658.68;451663;1252;140477;-58
2024/02/26 18:26:23;;;;;;;16.00;12.10;;;;;;;10.16;80.27;98667.59;451669;1252;140403;-62
2024/02/26 18:36:31;;;;;;;20.10;12.10;;;;;;;10.12;81.45;98662.64;451763;1252;139814;-58
2024/02/26 18:46:45;;;;;;;16.10;13.20;;;;;;;10.12;82.59;98658.56;447673;1252;5101128;-67
2024/02/26 18:56:51;;;;;;;17.80;13.10;;;;;;;10.15;83.49;98654.12;451558;1252;139984;-69
2024/02/26 19:06:58;;;;;;;15.60;12.40;;;;;;;10.17;84.08;98658.23;451682;1252;139833;-58
2024/02/26 19:17:04;;;;;;;14.80;11.50;;;;;;;10.18;84.84;98664.80;451713;1252;140020;-60
2024/02/26 19:27:10;;;;;;;20.50;15.20;;;;;;;10.15;85.55;98673.37;451499;1252;139563;-61
2024/02/26 19:37:16;;;;;;;19.70;15.60;;;;;;;10.09;86.56;98680.15;450761;1252;141220;-61
2024/02/26 19:47:22;;;;;;;19.30;16.00;;;;;;;9.99;87.88;98689.15;451729;1252;140342;-63
2024/02/26 19:57:28;;;;;;;20.70;15.20;;;;;;;9.92;89.21;98696.09;450957;1252;140993;-59
2024/02/26 20:07:34;;;;;;;23.30;17.10;;;;;;;9.86;90.05;98705.46;451648;1252;141124;-67
2024/02/26 20:17:40;;;;;;;22.20;16.90;;;;;;;9.85;91.05;98709.73;451601;1252;139699;-68
2024/02/26 20:27:46;;;;;;;21.60;15.70;;;;;;;9.85;91.49;98712.72;451586;1252;139165;-67
2024/02/26 20:37:52;;;;;;;25.20;17.40;;;;;;;9.76;91.73;98717.55;451658;1252;139780;-72
2024/02/26 20:48:01;;;;;;;25.10;19.80;;;;;;;9.55;91.90;98724.70;451661;1252;139903;-72
2024/02/26 20:58:08;;;;;;;27.70;19.80;;;;;;;9.29;93.00;98728.17;451549;1252;139999;-71
2024/02/26 21:08:15;;;;;;;28.80;20.30;;;;;;;9.04;94.04;98745.30;451810;1252;139600;-73
2024/02/26 21:18:35;;;;;;;28.90;21.10;;;;;;;8.81;95.40;98756.13;451795;1252;139928;-58
2024/02/26 21:28:43;;;;;;;30.40;21.20;;;;;;;8.61;96.19;98766.96;451609;1252;139606;-58
2024/02/26 21:38:50;;;;;;;26.80;20.80;;;;;;;8.41;97.26;98781.36;451546;1252;139363;-58
2024/02/26 21:48:56;;;;;;;27.20;21.50;;;;;;;8.22;98.30;98790.14;451723;1252;139401;-59
2024/02/26 21:59:03;;;;;;;25.10;20.60;;;;;;;8.03;99.20;98797.11;451612;1252;140019;-59
2024/02/26 22:09:09;;;;;;;34.10;22.90;;;;;;;7.83;99.93;98813.75;451638;1252;139943;-59
2024/02/26 22:19:18;;;;;;;32.20;22.30;;;;;;;7.65;100.00;98820.80;451604;1252;139141;-67
2024/02/26 22:29:24;;;;;;;37.20;26.40;;;;;;;7.52;100.00;98827.55;451773;1252;140443;-67
2024/02/26 22:39:34;;;;;;;25.50;21.90;;;;;;;7.40;100.00;98825.53;451590;1252;140582;-59
2024/02/26 22:49:40;;;;;;;32.50;25.00;;;;;;;7.29;100.00;98830.92;451607;1252;140641;-58
2024/02/26 22:59:46;;;;;;;29.00;23.20;;;;;;;7.20;100.00;98836.88;451909;1252;139943;-59
2024/02/26 23:09:54;;;;;;;29.90;23.70;;;;;;;7.05;100.00;98838.11;451704;1252;139295;-59
2024/02/26 23:20:00;;;;;;;37.40;28.90;;;;;;;6.88;100.00;98845.23;451779;1252;139857;-70
2024/02/26 23:30:08;;;;;;;39.20;28.70;;;;;;;6.73;100.00;98847.48;451940;1252;139787;-67
2024/02/26 23:40:14;;;;;;;36.10;25.50;;;;;;;6.65;100.00;98847.83;451625;1252;139994;-67
2024/02/26 23:50:21;;;;;;;35.00;26.30;;;;;;;6.55;100.00;98853.13;451423;1252;140163;-71
